| time (UTC) | temp C | wind direction | speed KPH | gust KPH | rain 1hr cm | rain 24hr cm | rain mn cm | humidity % | barometer mb |
| 20260906171704 | 34 | 126 | 4.8 | 11.3 | 0.00 | 0.00 | 0.00 | 54 | 1011.7 |
| 20260906171204 | 34 | 123 | 3.2 | 8.0 | 0.00 | 0.00 | 0.00 | 54 | 1011.8 |
| 20260906170703 | 35 | 62 | 4.8 | 11.3 | 0.00 | 0.00 | 0.00 | 51 | 1011.9 |
| 20260906170204 | 35 | 107 | 3.2 | 9.7 | 0.00 | 0.00 | 0.00 | 52 | 1012.0 |
| 20260906164704 | 35 | 118 | 3.2 | 9.7 | 0.00 | 0.00 | 0.00 | 53 | 1012.1 |
| 20260906163703 | 35 | 178 | 3.2 | 9.7 | 0.00 | 0.00 | 0.00 | 53 | 1012.2 |
| 20260906163203 | 35 | 163 | 3.2 | 8.0 | 0.00 | 0.00 | 0.00 | 54 | 1012.3 |
| 20260906160705 | 33 | 153 | 3.2 | 9.7 | 0.00 | 0.00 | 0.00 | 53 | 1012.4 |
| 20260906160206 | 33 | 151 | 3.2 | 9.7 | 0.00 | 0.00 | 0.00 | 52 | 1012.3 |
| 20260906154705 | 32 | 97 | 4.8 | 9.7 | 0.00 | 0.00 | 0.00 | 50 | 1012.2 |
| 20260906154205 | 32 | 79 | 1.6 | 4.8 | 0.00 | 0.00 | 0.00 | 50 | 1012.2 |
| 20260906153706 | 32 | 134 | 3.2 | 4.8 | 0.00 | 0.00 | 0.00 | 48 | 1012.2 |
| 20260906153205 | 31 | 118 | 3.2 | 11.3 | 0.00 | 0.00 | 0.00 | 46 | 1012.1 |
| 20260906151705 | 31 | 159 | 4.8 | 9.7 | 0.00 | 0.00 | 0.00 | 31 | 1012.0 |
| 20260906151205 | 30 | 70 | 3.2 | 4.8 | 0.00 | 0.00 | 0.00 | 35 | 1012.1 |
| 20260906144206 | 30 | 143 | 3.2 | 11.3 | 0.00 | 0.00 | 0.00 | 20 | 1012.5 |
| 20260906143206 | 29 | 155 | 3.2 | 11.3 | 0.00 | 0.00 | 0.00 | 5 | 1012.5 |
| 20260906141705 | 28 | 58 | 3.2 | 9.7 | 0.00 | 0.00 | 0.00 | 3 | 1012.5 |
| 20260906141205 | 28 | 59 | 4.8 | 12.9 | 0.00 | 0.00 | 0.00 | 3 | 1012.5 |
| 20260906140706 | 27 | 100 | 1.6 | 4.8 | 0.00 | 0.00 | 0.00 | 3 | 1012.5 |
| 20260906140205 | 27 | 71 | 4.8 | 14.5 | 0.00 | 0.00 | 0.00 | 3 | 1012.4 |
| 20260906134706 | 27 | 111 | 4.8 | 11.3 | 0.00 | 0.00 | 0.00 | 3 | 1012.5 |
| 20260906134205 | 27 | 73 | 4.8 | 9.7 | 0.00 | 0.00 | 0.00 | 3 | 1012.5 |
| 20260906133705 | 26 | 93 | 3.2 | 9.7 | 0.00 | 0.00 | 0.00 | 3 | 1012.5 |
| 20260906133206 | 26 | 74 | 4.8 | 14.5 | 0.00 | 0.00 | 0.00 | 3 | 1012.4 |
| 20260906131705 | 26 | 72 | 4.8 | 12.9 | 0.00 | 0.00 | 0.00 | 3 | 1012.3 |
| 20260906131206 | 26 | 58 | 4.8 | 11.3 | 0.00 | 0.00 | 0.00 | 3 | 1012.2 |
| 20260906130705 | 26 | 75 | 3.2 | 11.3 | 0.00 | 0.00 | 0.00 | 3 | 1012.2 |
| 20260906124205 | 25 | 60 | 3.2 | 8.0 | 0.00 | 0.00 | 0.00 | 3 | 1011.9 |
| 20260906123705 | 25 | 66 | 4.8 | 11.3 | 0.00 | 0.00 | 0.00 | 3 | 1011.8 |
| 20260906123205 | 25 | 70 | 4.8 | 14.5 | 0.00 | 0.00 | 0.00 | 3 | 1011.8 |
| 20260906121705 | 24 | 63 | 4.8 | 8.0 | 0.00 | 0.00 | 0.00 | 3 | 1011.7 |
| 20260906120705 | 24 | 60 | 1.6 | 4.8 | 0.00 | 0.00 | 0.00 | 3 | 1011.6 |
| 20260906120205 | 24 | 73 | 1.6 | 8.0 | 0.00 | 0.00 | 0.00 | 3 | 1011.6 |
| 20260906114705 | 24 | 69 | 3.2 | 4.8 | 0.00 | 0.00 | 0.00 | 3 | 1011.4 |
| 20260906113705 | 24 | 93 | 1.6 | 4.8 | 0.00 | 0.00 | 0.00 | 3 | 1011.3 |
| 20260906113205 | 24 | 75 | 3.2 | 8.0 | 0.00 | 0.00 | 0.00 | 3 | 1011.3 |
| 20260906111705 | 25 | 53 | 1.6 | 4.8 | 0.00 | 0.00 | 0.00 | 3 | 1011.2 |
| 20260906110705 | 25 | 80 | 1.6 | 3.2 | 0.00 | 0.00 | 0.00 | 3 | 1011.1 |
| 20260906110205 | 25 | 80 | 3.2 | 8.0 | 0.00 | 0.00 | 0.00 | 3 | 1011.0 |
| 20260906104205 | 25 | 81 | 3.2 | 4.8 | 0.00 | 0.00 | 0.00 | 3 | 1011.1 |
| 20260906101705 | 25 | 72 | 1.6 | 4.8 | 0.00 | 0.00 | 0.00 | 3 | 1011.0 |
| 20260906101205 | 25 | 76 | 3.2 | 4.8 | 0.00 | 0.00 | 0.00 | 3 | 1010.9 |
| 20260906100705 | 25 | 73 | 3.2 | 8.0 | 0.00 | 0.00 | 0.00 | 3 | 1011.0 |
| 20260906100205 | 25 | 66 | 3.2 | 8.0 | 0.00 | 0.00 | 0.00 | 3 | 1011.0 |
| 20260906094705 | 25 | 71 | 1.6 | 4.8 | 0.00 | 0.00 | 0.00 | 3 | 1010.8 |
| 20260906093705 | 24 | 84 | 3.2 | 4.8 | 0.00 | 0.00 | 0.00 | 3 | 1010.7 |
| 20260906091705 | 24 | 36 | 3.2 | 4.8 | 0.00 | 0.00 | 0.00 | 3 | 1010.6 |
| 20260906090705 | 23 | 53 | 1.6 | 4.8 | 0.00 | 0.00 | 0.00 | 3 | 1010.6 |
| 20260906090205 | 24 | 53 | 0.0 | 3.2 | 0.00 | 0.00 | 0.00 | 3 | 1010.5 |
| 20260906084704 | 24 | 53 | 0.0 | 0.0 | 0.00 | 0.00 | 0.00 | 3 | 1010.5 |
| 20260906084205 | 24 | 53 | 0.0 | 0.0 | 0.00 | 0.00 | 0.00 | 3 | 1010.4 |
| 20260906083205 | 24 | 53 | 0.0 | 4.8 | 0.00 | 0.00 | 0.00 | 3 | 1010.3 |
| 20260906081705 | 24 | 65 | 1.6 | 3.2 | 0.00 | 0.00 | 0.00 | 3 | 1010.2 |
| 20260906081205 | 24 | 65 | 1.6 | 4.8 | 0.00 | 0.00 | 0.00 | 3 | 1010.2 |
| 20260906080205 | 24 | 65 | 0.0 | 0.0 | 0.00 | 0.00 | 0.00 | 3 | 1010.2 |
| 20260906074705 | 24 | 65 | 0.0 | 0.0 | 0.00 | 0.00 | 0.00 | 3 | 1010.2 |
| 20260906074205 | 24 | 65 | 0.0 | 0.0 | 0.00 | 0.00 | 0.00 | 3 | 1010.3 |
| 20260906073705 | 24 | 65 | 0.0 | 3.2 | 0.00 | 0.00 | 0.00 | 3 | 1010.2 |
| 20260906073205 | 24 | 65 | 0.0 | 1.6 | 0.00 | 0.00 | 0.00 | 3 | 1010.2 |
| 20260906071704 | 25 | 65 | 1.6 | 3.2 | 0.00 | 0.00 | 0.00 | 3 | 1010.2 |
| 20260906071205 | 25 | 65 | 0.0 | 3.2 | 0.00 | 0.00 | 0.00 | 3 | 1010.2 |
| 20260906070705 | 25 | 65 | 1.6 | 3.2 | 0.00 | 0.00 | 0.00 | 3 | 1010.3 |
| 20260906064704 | 25 | 65 | 0.0 | 0.0 | 0.00 | 0.00 | 0.00 | 3 | 1010.5 |
| 20260906064205 | 25 | 65 | 0.0 | 0.0 | 0.00 | 0.00 | 0.00 | 3 | 1010.6 |
| 20260906063705 | 25 | 65 | 0.0 | 1.6 | 0.00 | 0.00 | 0.00 | 3 | 1010.7 |
| 20260906063205 | 25 | 65 | 0.0 | 3.2 | 0.00 | 0.00 | 0.00 | 3 | 1010.7 |
| 20260906061704 | 25 | 65 | 0.0 | 0.0 | 0.00 | 0.00 | 0.00 | 3 | 1010.6 |
| 20260906061204 | 25 | 65 | 0.0 | 0.0 | 0.00 | 0.00 | 0.00 | 3 | 1010.7 |
| 20260906060705 | 25 | 65 | 0.0 | 0.0 | 0.00 | 0.00 | 0.00 | 3 | 1010.6 |
| 20260906060205 | 25 | 65 | 0.0 | 4.8 | 0.00 | 0.00 | 0.00 | 3 | 1010.7 |
| 20260906054704 | 25 | 65 | 0.0 | 1.6 | 0.00 | 0.00 | 0.00 | 3 | 1010.7 |
| 20260906054205 | 25 | 65 | 0.0 | 3.2 | 0.00 | 0.00 | 0.00 | 3 | 1010.7 |
| 20260906053705 | 25 | 65 | 1.6 | 3.2 | 0.00 | 0.00 | 0.00 | 3 | 1010.8 |
| 20260906053205 | 25 | 65 | 0.0 | 4.8 | 0.00 | 0.00 | 0.00 | 3 | 1010.8 |
| 20260906051205 | 25 | 65 | 0.0 | 0.0 | 0.00 | 0.00 | 0.00 | 3 | 1010.8 |
| 20260906050704 | 25 | 65 | 0.0 | 0.0 | 0.00 | 0.00 | 0.00 | 3 | 1010.8 |
| 20260906050204 | 25 | 65 | 0.0 | 0.0 | 0.00 | 0.00 | 0.00 | 3 | 1010.7 |
| 20260906044705 | 26 | 65 | 0.0 | 0.0 | 0.00 | 0.00 | 0.00 | 3 | 1010.7 |
| 20260906044205 | 26 | 65 | 0.0 | 0.0 | 0.00 | 0.00 | 0.00 | 3 | 1010.7 |
| 20260906041705 | 26 | 65 | 0.0 | 1.6 | 0.00 | 0.00 | 0.00 | 3 | 1010.5 |
| 20260906041204 | 26 | 65 | 0.0 | 3.2 | 0.00 | 0.00 | 0.00 | 3 | 1010.5 |
| 20260906040204 | 26 | 65 | 0.0 | 4.8 | 0.00 | 0.00 | 0.00 | 3 | 1010.3 |
| 20260906034205 | 26 | 190 | 0.0 | 0.0 | 0.00 | 0.00 | 0.00 | 3 | 1010.1 |
| 20260906033704 | 26 | 190 | 0.0 | 1.6 | 0.00 | 0.00 | 0.00 | 3 | 1010.1 |
| 20260906033204 | 26 | 190 | 0.0 | 0.0 | 0.00 | 0.00 | 0.00 | 3 | 1010.1 |
| 20260906031705 | 26 | 190 | 0.0 | 0.0 | 0.00 | 0.00 | 0.00 | 3 | 1010.1 |
| 20260906031205 | 26 | 190 | 0.0 | 0.0 | 0.00 | 0.00 | 0.00 | 3 | 1010.0 |
| 20260906024205 | 27 | 190 | 0.0 | 0.0 | 0.00 | 0.00 | 0.00 | 8 | 1009.6 |
| 20260906023704 | 27 | 190 | 0.0 | 0.0 | 0.00 | 0.00 | 0.00 | 11 | 1009.5 |
| 20260906023205 | 27 | 190 | 0.0 | 0.0 | 0.00 | 0.00 | 0.00 | 15 | 1009.5 |
| 20260906021704 | 27 | 190 | 0.0 | 0.0 | 0.00 | 0.00 | 0.00 | 35 | 1009.2 |
| 20260906021204 | 28 | 190 | 0.0 | 0.0 | 0.00 | 0.00 | 0.00 | 39 | 1009.1 |
| 20260906020205 | 28 | 190 | 0.0 | 0.0 | 0.00 | 0.00 | 0.00 | 46 | 1009.0 |
| 20260906014704 | 28 | 190 | 0.0 | 0.0 | 0.00 | 0.00 | 0.00 | 51 | 1008.7 |
| 20260906014204 | 28 | 190 | 0.0 | 0.0 | 0.00 | 0.00 | 0.00 | 53 | 1008.6 |
| 20260906013704 | 28 | 190 | 0.0 | 0.0 | 0.00 | 0.00 | 0.00 | 56 | 1008.6 |
| 20260906013204 | 29 | 190 | 0.0 | 0.0 | 0.00 | 0.00 | 0.00 | 59 | 1008.6 |
| 20260906011704 | 30 | 190 | 0.0 | 0.0 | 0.00 | 0.00 | 0.00 | 60 | 1008.6 |
| 20260906010705 | 30 | 190 | 0.0 | 0.0 | 0.00 | 0.00 | 0.00 | 60 | 1008.5 |
| 20260906010204 | 30 | 190 | 0.0 | 0.0 | 0.00 | 0.00 | 0.00 | 58 | 1008.5 |
| 20260906004704 | 31 | 190 | 0.0 | 0.0 | 0.00 | 0.00 | 0.00 | 59 | 1008.5 |
| 20260906004204 | 31 | 190 | 0.0 | 0.0 | 0.00 | 0.00 | 0.00 | 58 | 1008.6 |
| 20260906003704 | 31 | 190 | 0.0 | 0.0 | 0.00 | 0.00 | 0.00 | 58 | 1008.6 |
| 20260906003204 | 32 | 190 | 0.0 | 0.0 | 0.00 | 0.00 | 0.00 | 58 | 1008.6 |
| 20260906001705 | 32 | 190 | 0.0 | 0.0 | 0.00 | 0.00 | 0.00 | 58 | 1008.6 |
| 20260906001204 | 32 | 190 | 0.0 | 0.0 | 0.00 | 0.00 | 0.00 | 57 | 1008.6 |
| 20260906000204 | 33 | 190 | 0.0 | 0.0 | 0.00 | 0.00 | 0.00 | 55 | 1008.6 |
| 20260905234705 | 34 | 190 | 0.0 | 0.0 | 0.00 | 0.00 | 0.00 | 53 | 1008.6 |
| 20260905233704 | 35 | 190 | 0.0 | 0.0 | 0.00 | 0.00 | 0.00 | 49 | 1008.6 |
| 20260905233204 | 35 | 190 | 0.0 | 0.0 | 0.00 | 0.00 | 0.00 | 48 | 1008.5 |
| 20260905231705 | 35 | 190 | 0.0 | 0.0 | 0.00 | 0.00 | 0.00 | 46 | 1008.3 |
| 20260905231204 | 36 | 190 | 0.0 | 0.0 | 0.00 | 0.00 | 0.00 | 48 | 1008.2 |
| 20260905230204 | 36 | 190 | 0.0 | 1.6 | 0.00 | 0.00 | 0.00 | 46 | 1008.2 |
| 20260905224704 | 36 | 190 | 0.0 | 0.0 | 0.00 | 0.00 | 0.00 | 47 | 1008.2 |
| 20260905224204 | 36 | 190 | 0.0 | 0.0 | 0.00 | 0.00 | 0.00 | 46 | 1008.2 |
| 20260905223705 | 36 | 190 | 0.0 | 1.6 | 0.00 | 0.00 | 0.00 | 44 | 1008.3 |
| 20260905223204 | 36 | 190 | 0.0 | 0.0 | 0.00 | 0.00 | 0.00 | 45 | 1008.3 |
| 20260905221704 | 37 | 190 | 0.0 | 3.2 | 0.00 | 0.00 | 0.00 | 42 | 1008.2 |
| 20260905221204 | 37 | 190 | 1.6 | 4.8 | 0.00 | 0.00 | 0.00 | 41 | 1008.2 |
| 20260905220704 | 37 | 171 | 1.6 | 3.2 | 0.00 | 0.00 | 0.00 | 43 | 1008.2 |
| 20260905220204 | 37 | 171 | 0.0 | 8.0 | 0.00 | 0.00 | 0.00 | 42 | 1008.2 |
| 20260905214704 | 37 | 165 | 3.2 | 8.0 | 0.00 | 0.00 | 0.00 | 41 | 1008.5 |
| 20260905214204 | 38 | 163 | 0.0 | 0.0 | 0.00 | 0.00 | 0.00 | 40 | 1008.6 |
| 20260905213704 | 38 | 163 | 0.0 | 4.8 | 0.00 | 0.00 | 0.00 | 39 | 1008.7 |
| 20260905213203 | 38 | 96 | 1.6 | 4.8 | 0.00 | 0.00 | 0.00 | 41 | 1008.7 |
| 20260905211704 | 38 | 132 | 0.0 | 3.2 | 0.00 | 0.00 | 0.00 | 40 | 1009.0 |
| 20260905210704 | 38 | 190 | 1.6 | 8.0 | 0.00 | 0.00 | 0.00 | 39 | 1009.1 |
| 20260905204204 | 38 | 185 | 4.8 | 9.7 | 0.00 | 0.00 | 0.00 | 40 | 1009.5 |
| 20260905203704 | 38 | 253 | 1.6 | 4.8 | 0.00 | 0.00 | 0.00 | 39 | 1009.6 |
| 20260905203204 | 38 | 272 | 1.6 | 4.8 | 0.00 | 0.00 | 0.00 | 38 | 1009.6 |
| 20260905201704 | 38 | 170 | 1.6 | 4.8 | 0.00 | 0.00 | 0.00 | 40 | 1009.7 |
| 20260905201204 | 38 | 61 | 3.2 | 4.8 | 0.00 | 0.00 | 0.00 | 38 | 1009.7 |
| 20260905200704 | 38 | 134 | 1.6 | 4.8 | 0.00 | 0.00 | 0.00 | 40 | 1009.6 |
| 20260905200203 | 38 | 197 | 1.6 | 14.5 | 0.00 | 0.00 | 0.00 | 40 | 1009.7 |
| 20260905194704 | 39 | 167 | 4.8 | 11.3 | 0.00 | 0.00 | 0.00 | 39 | 1009.8 |
| 20260905194203 | 39 | 162 | 1.6 | 8.0 | 0.00 | 0.00 | 0.00 | 39 | 1009.9 |
| 20260905193704 | 39 | 259 | 3.2 | 8.0 | 0.00 | 0.00 | 0.00 | 38 | 1009.9 |
| 20260905193203 | 39 | 186 | 4.8 | 11.3 | 0.00 | 0.00 | 0.00 | 40 | 1010.0 |
| 20260905191204 | 39 | 136 | 1.6 | 9.7 | 0.00 | 0.00 | 0.00 | 40 | 1010.2 |
| 20260905190703 | 38 | 154 | 4.8 | 12.9 | 0.00 | 0.00 | 0.00 | 41 | 1010.3 |
| 20260905190203 | 38 | 159 | 3.2 | 11.3 | 0.00 | 0.00 | 0.00 | 41 | 1010.4 |
| 20260905184704 | 38 | 162 | 3.2 | 9.7 | 0.00 | 0.00 | 0.00 | 42 | 1010.5 |
| 20260905183704 | 38 | 87 | 1.6 | 8.0 | 0.00 | 0.00 | 0.00 | 41 | 1010.5 |
| 20260905183204 | 37 | 189 | 3.2 | 9.7 | 0.00 | 0.00 | 0.00 | 45 | 1010.5 |
| 20260905181704 | 36 | 309 | 1.6 | 4.8 | 0.00 | 0.00 | 0.00 | 44 | 1010.6 |
| 20260905180704 | 37 | 189 | 1.6 | 4.8 | 0.00 | 0.00 | 0.00 | 42 | 1010.7 |
| 20260905180204 | 37 | 277 | 1.6 | 8.0 | 0.00 | 0.00 | 0.00 | 42 | 1010.8 |
| 20260905174704 | 37 | 329 | 3.2 | 9.7 | 0.00 | 0.00 | 0.00 | 41 | 1011.0 |
| 20260905174203 | 37 | 315 | 1.6 | 4.8 | 0.00 | 0.00 | 0.00 | 44 | 1011.1 |
| 20260905173703 | 37 | 256 | 4.8 | 8.0 | 0.00 | 0.00 | 0.00 | 44 | 1011.2 |